This is the latest recevied weather packets stored in our database for station/object N2ZVN. If no packets are shown the sender has not sent any weather packets the latest 1 day(s).
| Time | Temp. | Humidity | Pressure | Rain* | Wind** | Luminosity | Snow |
|---|---|---|---|---|---|---|---|
| 1778008540 | 17.22° C | 60% | 1006 hPa | 0 mm | 0.89 m/s, 289° | 107 W/m² | - |
| 1778008238 | 17.78° C | 58% | 1005.7 hPa | 0 mm | 0.89 m/s, 319° | 128 W/m² | - |
| 1778007938 | 17.78° C | 59% | 1005.7 hPa | 0 mm | 0.89 m/s, 332° | 244 W/m² | - |
| 1778007634 | 17.22° C | 61% | 1005.9 hPa | 0 mm | 0.45 m/s, 302° | 198 W/m² | - |
| 1778007331 | 17.22° C | 61% | 1005.8 hPa | 0 mm | 1.34 m/s, 348° | 285 W/m² | - |
| 1778007028 | 17.22° C | 61% | 1005.8 hPa | 0 mm | 2.68 m/s, 326° | 316 W/m² | - |
| 1778006724 | 16.67° C | 62% | 1005.9 hPa | 0 mm | 1.34 m/s, 276° | 383 W/m² | - |
| 1778006421 | 16.67° C | 64% | 1005.7 hPa | 0 mm | 0.89 m/s, 322° | 240 W/m² | - |
| 1778006118 | 16.11° C | 65% | 1005.8 hPa | 0 mm | 0.45 m/s, 318° | 258 W/m² | - |
| 1778005815 | 16.11° C | 65% | 1005.8 hPa | 0 mm | 0.45 m/s, 297° | 208 W/m² | - |
| 1778005512 | 16.67° C | 64% | 1005.6 hPa | 0 mm | 4.02 m/s, 313° | 111 W/m² | - |
| 1778005208 | 17.78° C | 62% | 1005.6 hPa | 0 mm | 1.79 m/s, 313° | 75 W/m² | - |
| 1778004905 | 18.89° C | 60% | 1005.3 hPa | 0 mm | 1.79 m/s, 324° | 89 W/m² | - |
| 1778004602 | 20.56° C | 55% | 1005 hPa | 0 mm | 0.89 m/s, 336° | 160 W/m² | - |
| 1778004298 | 21.11° C | 53% | 1004.5 hPa | 0 mm | 0.89 m/s, 255° | 181 W/m² | - |
| 1778003995 | 20.56° C | 53% | 1004.7 hPa | 0 mm | 1.34 m/s, 238° | 419 W/m² | - |
| 1778003691 | 20.56° C | 53% | 1004.6 hPa | 0 mm | 1.79 m/s, 276° | 515 W/m² | - |
| 1778003388 | 21.11° C | 52% | 1004.6 hPa | 0 mm | 1.79 m/s, 276° | 273 W/m² | - |
| 1778003085 | 21.11° C | 53% | 1004.8 hPa | 0 mm | 1.79 m/s, 265° | 400 W/m² | - |
| 1778002781 | 21.11° C | 52% | 1004.9 hPa | 0 mm | 1.34 m/s, 278° | 239 W/m² | - |
| 1778002478 | 21.11° C | 52% | 1004.7 hPa | 0 mm | 0.89 m/s, 254° | 397 W/m² | - |
| 1778002175 | 20.56° C | 53% | 1004.6 hPa | 0 mm | 2.68 m/s, 266° | 636 W/m² | - |
| 1778001873 | 20.56° C | 52% | 1004.6 hPa | 0 mm | 4.02 m/s, 179° | 226 W/m² | - |
| 1778001572 | 20.56° C | 53% | 1004.8 hPa | 0 mm | 1.79 m/s, 275° | 316 W/m² | - |
| 1778001269 | 21.11° C | 50% | 1004.6 hPa | 0 mm | 5.36 m/s, 241° | 323 W/m² | - |
* Rain latest hour (hover to see other rain measurements)
** Current wind speed in m/s (hover to see current wind gust speed)